Terminal Aerodrome Forecast
Issued by NWS

Home | Current Version | Previous Version | Text Only | Print | Product List | Glossary On
Versions: 1 2 3 4 5 6 7 8 9 10 11 12 13 14 15 16 17
000
FTUS46 KMFR 021140
TAFRBG
TAF
KRBG 021140Z 0212/0312 VRB03KT 5SM -SHRA BR SCT015 OVC025
     FM021600 34003KT P6SM VCSH SCT025 OVC040
     FM022200 32009KT P6SM BKN050
     FM030300 34004KT P6SM BKN080=

USA.gov is the U.S. government's official web portal to all federal, state and local government web resources and services.